createdAt,value
2019-06-08T00:01:30.002Z,66.84
2019-06-08T00:03:59.301Z,66.59
2019-06-08T00:06:28.462Z,66.61
2019-06-08T00:08:57.687Z,66.42
2019-06-08T00:11:26.896Z,66.36
2019-06-08T00:13:56.106Z,66.34
2019-06-08T00:16:25.365Z,66.37
2019-06-08T00:18:54.662Z,66.21
2019-06-08T00:21:24.219Z,66.10
2019-06-08T00:23:53.479Z,66.12
2019-06-08T00:26:22.677Z,65.95
2019-06-08T00:28:51.894Z,65.97
2019-06-08T00:31:21.694Z,65.84
2019-06-08T00:33:50.950Z,65.78
2019-06-08T00:36:20.890Z,65.65
2019-06-08T00:38:50.593Z,65.66
2019-06-08T00:41:20.699Z,65.59
2019-06-08T00:43:51.181Z,65.58
2019-06-08T00:46:21.478Z,65.43
2019-06-08T00:48:50.615Z,65.35
2019-06-08T00:51:20.982Z,65.22
2019-06-08T00:53:50.272Z,65.05
2019-06-08T00:56:19.751Z,64.97
2019-06-08T00:58:48.911Z,64.78
2019-06-08T01:01:22.047Z,64.35
2019-06-08T01:03:49.267Z,64.16
2019-06-08T01:06:18.821Z,64.08
2019-06-08T01:08:47.410Z,64.10
2019-06-08T01:11:16.526Z,64.21
2019-06-08T01:13:45.682Z,64.05
2019-06-08T01:16:15.002Z,64.07
2019-06-08T01:18:44.282Z,63.90
2019-06-08T01:21:13.547Z,63.94
2019-06-08T01:23:42.726Z,63.83
2019-06-08T01:26:12.830Z,63.63
2019-06-08T01:28:42.199Z,63.66
2019-06-08T01:31:11.349Z,63.43
2019-06-08T01:33:40.538Z,63.50
2019-06-08T01:36:09.810Z,63.47
2019-06-08T01:38:39.106Z,63.35
2019-06-08T01:41:08.284Z,63.51
2019-06-08T01:43:37.445Z,63.41
2019-06-08T01:46:06.648Z,63.32
2019-06-08T01:48:35.935Z,63.23
2019-06-08T01:51:06.795Z,63.12
2019-06-08T01:53:35.960Z,63.08
2019-06-08T01:56:05.349Z,63.17
2019-06-08T01:58:34.654Z,63.19
2019-06-08T02:01:03.769Z,63.16
2019-06-08T02:03:34.673Z,63.10
2019-06-08T02:06:04.326Z,63.06
2019-06-08T02:08:34.702Z,63.06
2019-06-08T02:11:04.323Z,62.98
2019-06-08T02:13:33.177Z,62.82
2019-06-08T02:16:02.394Z,63.00
2019-06-08T02:18:41.845Z,62.68
2019-06-08T02:21:02.461Z,62.81
2019-06-08T02:23:33.028Z,62.56
2019-06-08T02:26:02.277Z,62.76
2019-06-08T02:28:31.898Z,62.56
2019-06-08T02:31:01.161Z,62.77
2019-06-08T02:33:30.813Z,62.67
2019-06-08T02:36:01.403Z,62.50
2019-06-08T02:38:32.239Z,62.69
2019-06-08T02:41:01.534Z,62.63
2019-06-08T02:43:30.919Z,62.51
2019-06-08T02:46:00.134Z,62.54
2019-06-08T02:48:30.023Z,62.47
2019-06-08T02:51:00.531Z,62.29
2019-06-08T02:53:30.144Z,62.15
2019-06-08T02:56:00.294Z,62.21
2019-06-08T02:58:31.113Z,61.95
2019-06-08T03:01:00.501Z,61.95
2019-06-08T03:03:31.720Z,61.66
2019-06-08T03:06:03.278Z,61.63
2019-06-08T03:08:39.103Z,61.68
2019-06-08T03:11:08.098Z,61.76
2019-06-08T03:13:39.494Z,61.76
2019-06-08T03:16:08.184Z,61.44
2019-06-08T03:18:38.284Z,61.67
2019-06-08T03:21:08.461Z,61.61
2019-06-08T03:23:38.753Z,61.66
2019-06-08T03:26:08.623Z,61.43
2019-06-08T03:28:39.960Z,61.59
2019-06-08T03:31:08.810Z,61.56
2019-06-08T03:33:45.771Z,61.57
2019-06-08T03:36:09.186Z,61.60
2019-06-08T03:38:40.206Z,61.35
2019-06-08T03:41:09.648Z,61.42
2019-06-08T03:43:40.825Z,61.41
2019-06-08T03:46:11.021Z,61.43
2019-06-08T03:48:40.133Z,61.55
2019-06-08T03:51:10.349Z,61.30
2019-06-08T03:53:40.529Z,61.35
2019-06-08T03:56:10.864Z,61.47
2019-06-08T03:58:40.608Z,61.39
2019-06-08T04:01:11.290Z,61.51
2019-06-08T04:03:40.361Z,61.40
2019-06-08T04:06:10.592Z,61.54
2019-06-08T04:08:40.915Z,61.39
2019-06-08T04:11:10.686Z,61.45
2019-06-08T04:13:42.006Z,61.32
2019-06-08T04:16:11.371Z,61.36
2019-06-08T04:18:42.017Z,61.40
2019-06-08T04:21:11.281Z,61.45
2019-06-08T04:23:42.624Z,61.33
2019-06-08T04:26:11.762Z,61.05
2019-06-08T04:28:42.473Z,61.18
2019-06-08T04:31:11.798Z,61.16
2019-06-08T04:33:42.082Z,61.04
2019-06-08T04:36:11.303Z,61.04
2019-06-08T04:38:41.312Z,60.97
2019-06-08T04:41:10.931Z,61.03
2019-06-08T04:43:42.834Z,60.68
2019-06-08T04:46:11.981Z,60.65
2019-06-08T04:48:42.858Z,60.70
2019-06-08T04:51:13.216Z,60.70
2019-06-08T04:53:43.187Z,60.74
2019-06-08T04:56:13.437Z,60.72
2019-06-08T04:58:45.989Z,60.71
2019-06-08T05:01:13.537Z,60.50
2019-06-08T05:03:43.356Z,60.72
2019-06-08T05:06:13.151Z,60.47
2019-06-08T05:08:43.151Z,60.45
2019-06-08T05:11:12.498Z,60.37
2019-06-08T05:13:43.191Z,60.49
2019-06-08T05:16:12.663Z,60.51
2019-06-08T05:18:43.110Z,60.43
2019-06-08T05:21:12.406Z,60.53
2019-06-08T05:23:41.607Z,60.46
2019-06-08T05:26:10.775Z,60.05
2019-06-08T05:28:41.053Z,60.45
2019-06-08T05:31:10.537Z,59.98
2019-06-08T05:33:39.710Z,60.26
2019-06-08T05:36:08.929Z,60.58
2019-06-08T05:38:39.393Z,60.43
2019-06-08T05:41:08.714Z,60.39
2019-06-08T05:43:37.887Z,60.45
2019-06-08T05:46:07.081Z,60.45
2019-06-08T05:48:36.341Z,60.58
2019-06-08T05:51:05.499Z,60.40
2019-06-08T05:53:35.474Z,60.65
2019-06-08T05:56:04.805Z,60.69
2019-06-08T05:58:34.004Z,60.85
2019-06-08T06:01:03.179Z,60.80
2019-06-08T06:03:32.342Z,61.11
2019-06-08T06:06:01.552Z,61.22
2019-06-08T06:08:30.766Z,61.63
2019-06-08T06:10:59.987Z,61.76
2019-06-08T06:13:29.150Z,61.92
2019-06-08T06:15:58.427Z,62.16
2019-06-08T06:18:27.605Z,62.57
2019-06-08T06:21:09.863Z,62.90
2019-06-08T06:23:27.744Z,63.12
2019-06-08T06:25:56.995Z,63.27
2019-06-08T06:28:26.168Z,63.28
2019-06-08T06:30:55.470Z,63.04
2019-06-08T06:33:24.607Z,63.00
2019-06-08T06:35:53.840Z,62.78
2019-06-08T06:38:23.038Z,62.74
2019-06-08T06:40:52.657Z,62.61
2019-06-08T06:43:22.840Z,62.55
2019-06-08T06:45:52.295Z,62.19
2019-06-08T06:48:23.547Z,61.79
2019-06-08T06:50:52.631Z,61.93
2019-06-08T06:53:21.840Z,61.61
2019-06-08T06:55:51.067Z,61.89
2019-06-08T06:58:20.334Z,61.70
2019-06-08T07:00:49.551Z,61.85
2019-06-08T07:03:18.780Z,61.57
2019-06-08T07:05:48.013Z,61.57
2019-06-08T07:08:17.258Z,61.37
2019-06-08T07:10:46.639Z,61.29
2019-06-08T07:13:16.812Z,61.25
2019-06-08T07:15:47.311Z,61.46
2019-06-08T07:18:17.133Z,61.42
2019-06-08T07:20:48.128Z,61.38
2019-06-08T07:23:17.326Z,61.27
2019-06-08T07:25:46.568Z,61.23
2019-06-08T07:28:15.748Z,61.39
2019-06-08T07:30:45.011Z,61.50
2019-06-08T07:33:14.171Z,61.84
2019-06-08T07:35:43.350Z,61.90
2019-06-08T07:38:12.562Z,61.87
2019-06-08T07:40:41.899Z,61.84
2019-06-08T07:43:13.101Z,61.50
2019-06-08T07:45:42.746Z,61.35
2019-06-08T07:48:11.913Z,61.80
2019-06-08T07:50:41.148Z,61.75
2019-06-08T07:53:10.331Z,61.96
2019-06-08T07:55:39.566Z,62.23
2019-06-08T07:58:08.882Z,62.33
2019-06-08T08:00:38.061Z,62.42
2019-06-08T08:03:10.244Z,62.45
2019-06-08T08:05:39.878Z,62.43
2019-06-08T08:08:08.349Z,62.36
2019-06-08T08:10:37.491Z,62.50
2019-06-08T08:13:06.726Z,62.49
2019-06-08T08:15:36.040Z,62.63
2019-06-08T08:18:05.606Z,62.77
2019-06-08T08:20:34.775Z,62.96
2019-06-08T08:23:06.205Z,62.96
2019-06-08T08:25:34.929Z,63.13
2019-06-08T08:28:04.093Z,63.33
2019-06-08T08:30:33.280Z,63.66
2019-06-08T08:33:03.366Z,63.89
2019-06-08T08:35:32.768Z,63.97
2019-06-08T08:38:04.411Z,63.83
2019-06-08T08:40:32.858Z,64.11
2019-06-08T08:43:02.027Z,64.29
2019-06-08T08:45:31.283Z,64.35
2019-06-08T08:48:21.170Z,64.54
2019-06-08T08:50:31.367Z,64.59
2019-06-08T08:53:02.225Z,64.76
2019-06-08T08:55:31.600Z,65.01
2019-06-08T08:58:02.167Z,65.54
2019-06-08T09:00:31.447Z,65.70
2019-06-08T09:03:21.964Z,65.40
2019-06-08T09:05:31.774Z,65.51
2019-06-08T09:08:02.609Z,65.51
2019-06-08T09:10:31.823Z,65.60
2019-06-08T09:13:04.211Z,65.70
2019-06-08T09:15:32.236Z,65.56
2019-06-08T09:18:03.705Z,65.52
2019-06-08T09:20:32.353Z,65.72
2019-06-08T09:23:11.728Z,65.76
2019-06-08T09:25:32.481Z,65.96
2019-06-08T09:28:04.659Z,65.98
2019-06-08T09:30:32.646Z,66.18
2019-06-08T09:33:02.906Z,66.26
2019-06-08T09:35:32.696Z,66.25
2019-06-08T09:38:04.796Z,66.58
2019-06-08T09:40:32.817Z,66.68
2019-06-08T09:43:09.178Z,66.71
2019-06-08T09:45:34.942Z,66.63
2019-06-08T09:48:05.766Z,66.46
2019-06-08T09:50:38.453Z,66.39
2019-06-08T09:53:23.196Z,66.47
2019-06-08T09:55:41.296Z,66.74
2019-06-08T09:58:11.720Z,66.88
2019-06-08T10:00:40.305Z,66.57
2019-06-08T10:03:09.794Z,66.37
2019-06-08T10:05:39.175Z,66.60
2019-06-08T10:08:09.541Z,66.64
2019-06-08T10:10:38.917Z,66.63
2019-06-08T10:13:09.661Z,66.85
2019-06-08T10:15:39.001Z,66.83
2019-06-08T10:18:08.585Z,67.00
2019-06-08T10:20:38.618Z,66.91
2019-06-08T10:23:24.402Z,66.69
2019-06-08T10:25:38.785Z,66.60
2019-06-08T10:28:14.056Z,66.51
2019-06-08T10:30:39.562Z,66.24
2019-06-08T10:33:10.080Z,65.65
2019-06-08T10:35:40.427Z,65.38
2019-06-08T10:38:12.002Z,65.49
2019-06-08T10:41:04.833Z,65.32
2019-06-08T10:43:29.464Z,65.33
2019-06-08T10:46:03.070Z,64.81
2019-06-08T10:48:30.707Z,64.47
2019-06-08T10:51:03.404Z,64.66
2019-06-08T10:53:45.183Z,64.13
2019-06-08T10:56:03.446Z,63.80
2019-06-08T10:58:33.675Z,63.58
2019-06-08T11:01:10.205Z,63.30
2019-06-08T11:03:38.680Z,63.01
2019-06-08T11:06:11.322Z,63.69
2019-06-08T11:08:39.010Z,63.56
2019-06-08T11:11:11.742Z,63.55
2019-06-08T11:13:40.112Z,62.97
2019-06-08T11:16:12.719Z,63.20
2019-06-08T11:18:41.756Z,63.23
2019-06-08T11:21:12.844Z,63.23
2019-06-08T11:23:42.853Z,63.01
2019-06-08T11:26:19.843Z,62.84
2019-06-08T11:28:43.283Z,63.03
2019-06-08T11:31:15.886Z,62.97
2019-06-08T11:33:45.276Z,62.26
2019-06-08T11:36:15.096Z,62.58
2019-06-08T11:38:44.243Z,62.33
2019-06-08T11:41:13.852Z,62.56
2019-06-08T11:43:42.564Z,62.76
2019-06-08T11:46:11.821Z,62.78
2019-06-08T11:48:41.690Z,62.27
2019-06-08T11:51:13.044Z,62.11
2019-06-08T11:53:42.247Z,62.07
2019-06-08T11:56:13.403Z,61.62
2019-06-08T11:58:43.578Z,61.79
2019-06-08T12:01:14.739Z,61.44
2019-06-08T12:03:43.620Z,60.90
2019-06-08T12:06:14.392Z,60.48
2019-06-08T12:08:43.773Z,60.58
2019-06-08T12:11:18.765Z,60.22
2019-06-08T12:13:43.916Z,60.08
2019-06-08T12:16:15.699Z,59.85
2019-06-08T12:18:44.072Z,60.00
2019-06-08T12:21:14.568Z,59.63
2019-06-08T12:23:43.851Z,59.07
2019-06-08T12:26:14.385Z,58.50
2019-06-08T12:28:44.128Z,58.71
2019-06-08T12:34:15.529Z,58.44
2019-06-08T12:36:45.211Z,58.49
2019-06-08T12:39:14.366Z,58.98
2019-06-08T12:41:43.768Z,58.94
2019-06-08T12:44:15.552Z,59.36
2019-06-08T12:46:44.921Z,58.92
2019-06-08T12:49:14.676Z,59.67
2019-06-08T12:51:44.919Z,59.94
2019-06-08T12:54:14.467Z,60.03
2019-06-08T12:56:43.627Z,60.16
2019-06-08T12:59:16.454Z,59.69
2019-06-08T13:01:44.135Z,59.64
2019-06-08T13:04:13.811Z,59.86
2019-06-08T13:06:43.052Z,59.35
2019-06-08T13:09:13.458Z,58.67
2019-06-08T13:11:43.250Z,58.24
2019-06-08T13:14:12.976Z,58.47
2019-06-08T13:16:42.535Z,57.99
2019-06-08T13:19:13.112Z,58.15
2019-06-08T13:21:42.654Z,58.13
2019-06-08T13:24:33.312Z,58.63
2019-06-08T13:27:02.869Z,59.05
2019-06-08T13:29:32.064Z,59.06
2019-06-08T13:32:01.538Z,60.72
2019-06-08T13:34:30.942Z,61.17
2019-06-08T13:37:00.189Z,60.10
2019-06-08T13:39:29.378Z,60.42
2019-06-08T13:41:58.621Z,59.99
2019-06-08T13:44:28.092Z,60.93
2019-06-08T13:46:57.797Z,60.34
2019-06-08T13:49:30.565Z,61.37
2019-06-08T13:51:58.500Z,61.88
2019-06-08T13:54:31.221Z,62.37
2019-06-08T13:56:59.174Z,62.52
2019-06-08T13:59:30.799Z,63.09
2019-06-08T14:01:59.668Z,63.32
2019-06-08T14:04:29.059Z,63.71
2019-06-08T14:06:58.569Z,63.16
2019-06-08T14:09:31.522Z,62.60
2019-06-08T14:11:59.087Z,62.71
2019-06-08T14:14:29.307Z,62.41
2019-06-08T14:16:59.000Z,62.96
2019-06-08T14:19:48.323Z,63.67
2019-06-08T14:22:20.094Z,63.85
2019-06-08T14:24:48.021Z,63.96
2019-06-08T14:27:17.205Z,62.92
2019-06-08T14:29:48.480Z,62.18
2019-06-08T14:32:19.106Z,62.05
2019-06-08T14:34:50.189Z,62.66
2019-06-08T14:37:20.027Z,63.30
2019-06-08T14:39:48.782Z,64.28
2019-06-08T14:42:23.526Z,65.29
2019-06-08T14:44:48.985Z,65.16
2019-06-08T14:47:18.747Z,65.85
2019-06-08T14:49:49.471Z,66.79
2019-06-08T14:52:20.442Z,67.09
2019-06-08T14:54:51.282Z,66.76
2019-06-08T14:57:23.291Z,66.31
2019-06-08T14:59:56.039Z,65.57
2019-06-08T15:02:26.168Z,65.00
2019-06-08T15:04:56.518Z,64.77
2019-06-08T15:07:29.145Z,65.03
2019-06-08T15:09:58.180Z,65.11
2019-06-08T15:12:28.558Z,65.59
2019-06-08T15:14:59.056Z,65.15
2019-06-08T15:17:30.841Z,64.78
2019-06-08T15:19:59.307Z,63.61
2019-06-08T15:22:30.043Z,63.74
2019-06-08T15:24:59.467Z,64.06
2019-06-08T15:27:31.985Z,63.79
2019-06-08T15:30:00.908Z,62.46
2019-06-08T15:32:33.662Z,61.72
2019-06-08T15:35:01.047Z,62.06
2019-06-08T15:37:33.364Z,62.09
2019-06-08T15:40:03.023Z,61.91
2019-06-08T15:42:32.484Z,61.73
2019-06-08T15:45:02.683Z,62.41
2019-06-08T15:47:32.476Z,62.78
2019-06-08T15:50:01.615Z,63.33
2019-06-08T15:52:33.003Z,63.54
2019-06-08T15:55:02.210Z,63.69
2019-06-08T15:57:37.557Z,63.79
2019-06-08T16:00:02.530Z,63.53
2019-06-08T16:02:31.782Z,62.94
2019-06-08T16:05:00.969Z,62.68
2019-06-08T16:07:31.296Z,62.50
2019-06-08T16:10:01.085Z,62.04
2019-06-08T16:12:30.664Z,61.98
2019-06-08T16:14:59.081Z,62.26
2019-06-08T16:17:29.250Z,62.27
2019-06-08T16:19:58.465Z,61.55
2019-06-08T16:22:27.747Z,62.01
2019-06-08T16:24:56.997Z,61.12
2019-06-08T16:27:26.229Z,60.69
2019-06-08T16:29:55.411Z,60.53
2019-06-08T16:32:24.633Z,59.71
2019-06-08T16:34:53.801Z,59.98
2019-06-08T16:37:22.995Z,57.83
2019-06-08T16:39:52.232Z,58.29
2019-06-08T16:42:21.400Z,57.15
2019-06-08T16:44:50.629Z,57.07
2019-06-08T16:47:19.816Z,57.93
2019-06-08T16:49:48.982Z,57.45
2019-06-08T16:52:18.370Z,57.55
2019-06-08T16:54:47.557Z,56.96
2019-06-08T16:57:16.816Z,57.98
2019-06-08T16:59:46.004Z,57.07
2019-06-08T17:02:16.960Z,56.85
2019-06-08T17:04:46.174Z,58.19
2019-06-08T17:07:15.346Z,58.10
2019-06-08T17:09:45.431Z,58.15
2019-06-08T17:12:14.653Z,57.87
2019-06-08T17:14:43.854Z,57.73
2019-06-08T17:17:13.089Z,57.22
2019-06-08T17:19:42.551Z,56.16
2019-06-08T17:22:11.836Z,55.76
2019-06-08T17:24:41.058Z,56.40
2019-06-08T17:27:26.029Z,56.09
2019-06-08T17:29:41.220Z,56.26
2019-06-08T17:32:10.417Z,56.04
2019-06-08T17:34:40.226Z,55.37
2019-06-08T17:37:09.728Z,55.82
2019-06-08T17:39:40.040Z,54.23
2019-06-08T17:42:09.309Z,54.28
2019-06-08T17:44:38.594Z,53.90
2019-06-08T17:47:07.848Z,53.98
2019-06-08T17:49:37.045Z,53.99
2019-06-08T17:52:06.283Z,54.25
2019-06-08T17:54:36.690Z,54.00
2019-06-08T17:57:05.907Z,53.88
2019-06-08T17:59:35.362Z,53.39
2019-06-08T18:02:07.270Z,53.60
2019-06-08T18:04:38.095Z,53.82
2019-06-08T18:07:07.460Z,53.75
2019-06-08T18:09:39.257Z,53.92
2019-06-08T18:12:08.810Z,53.50
2019-06-08T18:14:40.462Z,53.26
2019-06-08T18:17:08.935Z,53.55
2019-06-08T18:19:41.893Z,53.74
2019-06-08T18:22:15.292Z,53.85
2019-06-08T18:24:41.901Z,53.46
2019-06-08T18:27:11.005Z,53.62
2019-06-08T18:29:42.395Z,54.00
2019-06-08T18:32:11.572Z,53.48
2019-06-08T18:34:43.256Z,53.51
2019-06-08T18:37:13.309Z,53.53
2019-06-08T18:39:44.406Z,53.82
2019-06-08T18:42:13.848Z,53.72
2019-06-08T18:44:44.483Z,53.95
2019-06-08T18:47:13.915Z,53.65
2019-06-08T18:49:44.196Z,53.61
2019-06-08T18:52:13.689Z,54.14
2019-06-08T18:54:44.182Z,54.24
2019-06-08T18:57:13.545Z,54.11
2019-06-08T18:59:46.599Z,53.93
2019-06-08T19:02:13.850Z,53.78
2019-06-08T19:04:43.145Z,53.83
2019-06-08T19:07:12.467Z,53.66
2019-06-08T19:09:43.735Z,53.67
2019-06-08T19:12:12.980Z,53.57
2019-06-08T19:14:43.532Z,53.40
2019-06-08T19:17:12.844Z,53.50
2019-06-08T19:19:45.803Z,53.29
2019-06-08T19:22:13.534Z,53.56
2019-06-08T19:24:44.827Z,53.72
2019-06-08T19:27:13.886Z,53.71
2019-06-08T19:29:44.184Z,53.58
2019-06-08T19:32:14.381Z,53.80
2019-06-08T19:34:45.151Z,53.99
2019-06-08T19:37:14.533Z,53.85
2019-06-08T19:39:45.954Z,54.06
2019-06-08T19:42:14.911Z,54.25
2019-06-08T19:44:54.168Z,54.35
2019-06-08T19:47:17.261Z,54.25
2019-06-08T19:49:47.751Z,54.50
2019-06-08T19:52:18.308Z,54.49
2019-06-08T19:54:52.485Z,54.65
2019-06-08T19:57:18.550Z,54.73
2019-06-08T19:59:47.828Z,54.90
2019-06-08T20:02:17.736Z,54.86
2019-06-08T20:04:46.964Z,54.70
2019-06-08T20:07:17.494Z,54.81
2019-06-08T20:09:48.179Z,54.89
2019-06-08T20:12:18.616Z,54.79
2019-06-08T20:14:49.387Z,54.96
2019-06-08T20:17:19.487Z,54.54
2019-06-08T20:19:49.493Z,54.66
2019-06-08T20:22:18.948Z,54.81
2019-06-08T20:24:52.076Z,54.49
2019-06-08T20:27:19.303Z,54.53
2019-06-08T20:29:50.926Z,54.56
2019-06-08T20:32:19.635Z,54.71
2019-06-08T20:34:50.533Z,54.72
2019-06-08T20:37:19.740Z,54.86
2019-06-08T20:40:04.442Z,54.93
2019-06-08T20:42:19.922Z,55.05
2019-06-08T20:44:51.580Z,55.08
2019-06-08T20:47:20.687Z,55.12
2019-06-08T20:49:51.850Z,55.13
2019-06-08T20:52:21.243Z,55.28
2019-06-08T20:54:50.874Z,55.39
2019-06-08T20:57:21.495Z,55.44
2019-06-08T20:59:53.460Z,55.42
2019-06-08T21:02:21.669Z,55.52
2019-06-08T21:04:54.074Z,55.50
2019-06-08T21:07:22.157Z,55.63
2019-06-08T21:09:53.451Z,55.68
2019-06-08T21:12:22.968Z,55.83
2019-06-08T21:14:52.699Z,55.84
2019-06-08T21:17:22.362Z,56.00
2019-06-08T21:19:53.023Z,55.87
2019-06-08T21:22:22.443Z,55.89
2019-06-08T21:24:53.691Z,55.93
2019-06-08T21:27:23.269Z,55.98
2019-06-08T21:29:59.759Z,56.10
2019-06-08T21:32:23.942Z,56.21
2019-06-08T21:34:55.277Z,56.33
2019-06-08T21:37:24.920Z,56.46
2019-06-08T21:39:56.978Z,56.56
2019-06-08T21:42:27.661Z,56.64
2019-06-08T21:44:59.933Z,56.68
2019-06-08T21:47:28.477Z,56.83
2019-06-08T21:50:00.340Z,56.82
2019-06-08T21:52:29.430Z,57.02
2019-06-08T21:55:00.696Z,57.08
2019-06-08T21:57:30.224Z,57.24
2019-06-08T22:00:21.907Z,57.34
2019-06-08T22:02:32.605Z,57.29
2019-06-08T22:05:04.858Z,57.39
2019-06-08T22:07:37.737Z,57.57
2019-06-08T22:10:09.798Z,57.68
2019-06-08T22:12:40.401Z,57.72
2019-06-08T22:15:11.020Z,57.82
2019-06-08T22:17:41.203Z,57.78
2019-06-08T22:20:10.563Z,57.95
2019-06-08T22:22:40.088Z,58.00
2019-06-08T22:25:09.524Z,57.92
2019-06-08T22:27:39.352Z,57.91
2019-06-08T22:30:15.547Z,57.91
2019-06-08T22:32:40.755Z,57.92
2019-06-08T22:35:11.163Z,57.88
2019-06-08T22:37:41.231Z,58.06
2019-06-08T22:40:10.894Z,57.82
2019-06-08T22:42:41.795Z,57.86
2019-06-08T22:45:11.422Z,57.98
2019-06-08T22:47:40.696Z,58.04
2019-06-08T22:50:10.275Z,58.18
2019-06-08T22:52:40.128Z,58.17
2019-06-08T22:55:11.172Z,58.25
2019-06-08T22:57:40.464Z,58.30
2019-06-08T23:00:16.617Z,58.47
2019-06-08T23:02:42.380Z,58.42
2019-06-08T23:05:13.152Z,58.41
2019-06-08T23:07:42.597Z,58.46
2019-06-08T23:10:17.367Z,58.55
2019-06-08T23:12:48.186Z,58.62
2019-06-08T23:15:18.348Z,58.53
2019-06-08T23:17:49.576Z,58.57
2019-06-08T23:20:20.691Z,58.63
2019-06-08T23:22:49.991Z,58.62
2019-06-08T23:25:19.111Z,58.70
2019-06-08T23:27:48.504Z,58.71
2019-06-08T23:30:19.410Z,58.77
2019-06-08T23:32:48.793Z,58.88
2019-06-08T23:35:20.046Z,59.00
2019-06-08T23:37:50.718Z,59.02
2019-06-08T23:40:20.278Z,59.05
2019-06-08T23:42:49.516Z,58.89
2019-06-08T23:45:20.182Z,58.90
2019-06-08T23:47:49.420Z,58.86
2019-06-08T23:50:18.927Z,58.81
2019-06-08T23:52:48.105Z,58.92
2019-06-08T23:55:20.270Z,59.03
2019-06-08T23:57:49.452Z,59.08
